SBOSBO TAB / TTCP
Speedbird OnlineSpeedbird Online TAB / TTCP

Tobago-Crown Point Airport
19:15 25.4°C

Location Scarborough, Trinidad and Tobago
Latitude: 11.149700164794922
Longitude: -60.83219909667969
Web Wikipedia
Altitude 12 Meter / 38 Feet
Distance 7,049 KM / 4,380 Miles
from London.
Time Zone UTC -4 hours (America/Port_of_Spain)
Codes IATA: TAB
ICAO: TTCP
Currency £1 equals TTD 8.20
Runways
RunwayLength (m)Surface
112744Asphalt
292744Asphalt
Radio
TypeDescriptionFrequency
APPPIARCO APP119
GNDGND121.7
TWRTWR118.4
Live ATC
METAR TTCP 081400Z 10011KT 9999 FEW020 28/22 Q1015
TAF TAF TTCP 081000Z 0812/0912 10015KT 9999 FEW020 TEMPO 0813/0816 5000 SHRA BKN016 BECMG 0823/0901 07005KT
Weather As Of 08 Feb 2023 19:15
Description Few clouds
Wind 30 km/h from North-East (65°)
Cloud Cover 24%
Precipitation Rain: none, Snow: none
Sunrise 06:26
Sunset 18:08
Rotations During the last 90 days there were
26 flights from ANU
24 flights to ANU



Support Speedbird Online

© 2017-2023 Speedbird Online